sensor_id;sensor_type;location;lat;lon;timestamp;temperature;humidity
38239;DHT22;24035;48.900;9.188;2023-03-26T00:01:05;6.50;99.90
38239;DHT22;24035;48.900;9.188;2023-03-26T00:03:32;6.50;99.90
38239;DHT22;24035;48.900;9.188;2023-03-26T00:06:07;6.50;1.00
38239;DHT22;24035;48.900;9.188;2023-03-26T00:08:34;6.50;1.00
38239;DHT22;24035;48.900;9.188;2023-03-26T00:11:01;6.50;1.00
38239;DHT22;24035;48.900;9.188;2023-03-26T00:13:27;6.50;1.00
38239;DHT22;24035;48.900;9.188;2023-03-26T00:15:53;6.40;1.00
38239;DHT22;24035;48.900;9.188;2023-03-26T00:18:19;6.40;1.00
38239;DHT22;24035;48.900;9.188;2023-03-26T00:20:46;6.40;1.00
38239;DHT22;24035;48.900;9.188;2023-03-26T00:23:12;6.40;1.00
38239;DHT22;24035;48.900;9.188;2023-03-26T00:25:38;6.30;1.00
38239;DHT22;24035;48.900;9.188;2023-03-26T00:28:06;6.30;1.00
38239;DHT22;24035;48.900;9.188;2023-03-26T00:30:32;6.20;1.00
38239;DHT22;24035;48.900;9.188;2023-03-26T00:33:00;6.20;40.30
38239;DHT22;24035;48.900;9.188;2023-03-26T00:35:26;6.30;66.00
38239;DHT22;24035;48.900;9.188;2023-03-26T00:37:54;6.40;99.90
38239;DHT22;24035;48.900;9.188;2023-03-26T00:40:20;6.40;1.00
38239;DHT22;24035;48.900;9.188;2023-03-26T00:42:46;6.30;1.00
38239;DHT22;24035;48.900;9.188;2023-03-26T00:45:11;6.30;1.00
38239;DHT22;24035;48.900;9.188;2023-03-26T00:47:37;6.30;1.00
38239;DHT22;24035;48.900;9.188;2023-03-26T00:50:05;6.30;99.90
38239;DHT22;24035;48.900;9.188;2023-03-26T00:52:32;6.30;99.90
38239;DHT22;24035;48.900;9.188;2023-03-26T00:54:57;6.30;99.90
38239;DHT22;24035;48.900;9.188;2023-03-26T00:57:23;6.20;40.00
38239;DHT22;24035;48.900;9.188;2023-03-26T00:59:55;6.20;18.40
38239;DHT22;24035;48.900;9.188;2023-03-26T01:02:21;6.20;38.20
38239;DHT22;24035;48.900;9.188;2023-03-26T01:04:58;6.20;1.00
38239;DHT22;24035;48.900;9.188;2023-03-26T01:07:27;6.20;1.00
38239;DHT22;24035;48.900;9.188;2023-03-26T01:09:58;6.10;1.00
38239;DHT22;24035;48.900;9.188;2023-03-26T01:12:29;6.10;17.20
38239;DHT22;24035;48.900;9.188;2023-03-26T01:14:59;6.00;21.70
38239;DHT22;24035;48.900;9.188;2023-03-26T01:17:26;5.90;58.10
38239;DHT22;24035;48.900;9.188;2023-03-26T01:20:21;6.10;1.00
38239;DHT22;24035;48.900;9.188;2023-03-26T01:22:53;6.10;99.90
38239;DHT22;24035;48.900;9.188;2023-03-26T01:25:22;6.30;99.90
38239;DHT22;24035;48.900;9.188;2023-03-26T01:27:51;6.20;99.90
38239;DHT22;24035;48.900;9.188;2023-03-26T01:30:21;6.20;1.00
38239;DHT22;24035;48.900;9.188;2023-03-26T01:33:50;6.10;1.00
38239;DHT22;24035;48.900;9.188;2023-03-26T01:36:01;6.10;1.00
38239;DHT22;24035;48.900;9.188;2023-03-26T01:44:19;6.10;99.90
38239;DHT22;24035;48.900;9.188;2023-03-26T01:46:49;6.10;99.90
38239;DHT22;24035;48.900;9.188;2023-03-26T01:49:17;6.20;51.10
38239;DHT22;24035;48.900;9.188;2023-03-26T01:51:43;6.30;1.00
38239;DHT22;24035;48.900;9.188;2023-03-26T01:54:28;6.30;1.00
38239;DHT22;24035;48.900;9.188;2023-03-26T02:00:24;6.40;99.90
38239;DHT22;24035;48.900;9.188;2023-03-26T02:05:35;6.30;99.90
38239;DHT22;24035;48.900;9.188;2023-03-26T02:08:07;6.30;99.90
38239;DHT22;24035;48.900;9.188;2023-03-26T02:10:43;6.30;99.90
38239;DHT22;24035;48.900;9.188;2023-03-26T02:13:10;6.30;99.90
38239;DHT22;24035;48.900;9.188;2023-03-26T02:15:38;6.30;99.90
38239;DHT22;24035;48.900;9.188;2023-03-26T02:18:05;6.30;99.90
38239;DHT22;24035;48.900;9.188;2023-03-26T02:20:31;6.40;99.90
38239;DHT22;24035;48.900;9.188;2023-03-26T02:22:57;6.40;91.60
38239;DHT22;24035;48.900;9.188;2023-03-26T02:25:23;6.50;1.00
38239;DHT22;24035;48.900;9.188;2023-03-26T02:27:50;6.50;1.00
38239;DHT22;24035;48.900;9.188;2023-03-26T02:30:20;6.50;1.00
38239;DHT22;24035;48.900;9.188;2023-03-26T02:32:50;6.50;1.00
38239;DHT22;24035;48.900;9.188;2023-03-26T02:35:16;6.60;1.00
38239;DHT22;24035;48.900;9.188;2023-03-26T02:37:42;6.60;99.90
38239;DHT22;24035;48.900;9.188;2023-03-26T02:40:11;6.70;99.90
38239;DHT22;24035;48.900;9.188;2023-03-26T02:42:38;6.70;99.90
38239;DHT22;24035;48.900;9.188;2023-03-26T02:45:05;6.70;99.90
38239;DHT22;24035;48.900;9.188;2023-03-26T02:47:31;6.70;99.90
38239;DHT22;24035;48.900;9.188;2023-03-26T02:49:58;6.80;53.10
38239;DHT22;24035;48.900;9.188;2023-03-26T02:52:24;6.90;1.00
38239;DHT22;24035;48.900;9.188;2023-03-26T02:54:49;6.90;1.00
38239;DHT22;24035;48.900;9.188;2023-03-26T02:57:15;7.00;1.00
38239;DHT22;24035;48.900;9.188;2023-03-26T02:59:41;7.00;1.00
38239;DHT22;24035;48.900;9.188;2023-03-26T03:02:06;7.00;99.90
38239;DHT22;24035;48.900;9.188;2023-03-26T03:04:32;7.00;99.90
38239;DHT22;24035;48.900;9.188;2023-03-26T03:06:58;7.00;99.90
38239;DHT22;24035;48.900;9.188;2023-03-26T03:09:24;7.10;99.90
38239;DHT22;24035;48.900;9.188;2023-03-26T03:11:50;7.10;99.90
38239;DHT22;24035;48.900;9.188;2023-03-26T03:14:17;7.10;99.90
38239;DHT22;24035;48.900;9.188;2023-03-26T03:16:43;7.10;99.90
38239;DHT22;24035;48.900;9.188;2023-03-26T03:19:09;7.10;99.90
38239;DHT22;24035;48.900;9.188;2023-03-26T03:21:35;7.20;1.00
38239;DHT22;24035;48.900;9.188;2023-03-26T03:24:00;7.20;1.00
38239;DHT22;24035;48.900;9.188;2023-03-26T03:26:27;7.20;1.00
38239;DHT22;24035;48.900;9.188;2023-03-26T03:28:55;7.20;1.00
38239;DHT22;24035;48.900;9.188;2023-03-26T03:31:22;7.30;1.00
38239;DHT22;24035;48.900;9.188;2023-03-26T03:33:52;7.20;1.00
38239;DHT22;24035;48.900;9.188;2023-03-26T03:36:20;7.30;1.00
38239;DHT22;24035;48.900;9.188;2023-03-26T03:38:49;7.40;1.00
38239;DHT22;24035;48.900;9.188;2023-03-26T03:41:15;7.40;1.00
38239;DHT22;24035;48.900;9.188;2023-03-26T03:43:43;7.50;1.00
38239;DHT22;24035;48.900;9.188;2023-03-26T03:46:09;7.40;1.00
38239;DHT22;24035;48.900;9.188;2023-03-26T03:48:34;7.40;1.00
38239;DHT22;24035;48.900;9.188;2023-03-26T03:51:03;7.50;1.00
38239;DHT22;24035;48.900;9.188;2023-03-26T03:53:29;7.50;1.00
38239;DHT22;24035;48.900;9.188;2023-03-26T03:55:55;7.50;1.00
38239;DHT22;24035;48.900;9.188;2023-03-26T03:58:23;7.50;1.00
38239;DHT22;24035;48.900;9.188;2023-03-26T04:00:51;7.50;1.00
38239;DHT22;24035;48.900;9.188;2023-03-26T04:03:18;7.50;1.00
38239;DHT22;24035;48.900;9.188;2023-03-26T04:05:45;7.50;99.90
38239;DHT22;24035;48.900;9.188;2023-03-26T04:08:17;7.70;1.00
38239;DHT22;24035;48.900;9.188;2023-03-26T04:10:43;7.70;99.90
38239;DHT22;24035;48.900;9.188;2023-03-26T04:13:11;7.70;99.90
38239;DHT22;24035;48.900;9.188;2023-03-26T04:15:37;7.70;99.90
38239;DHT22;24035;48.900;9.188;2023-03-26T04:18:03;7.70;99.90
38239;DHT22;24035;48.900;9.188;2023-03-26T04:20:28;7.70;99.90
38239;DHT22;24035;48.900;9.188;2023-03-26T04:22:54;7.70;99.90
38239;DHT22;24035;48.900;9.188;2023-03-26T04:25:20;7.60;99.90
38239;DHT22;24035;48.900;9.188;2023-03-26T04:27:46;7.60;99.90
38239;DHT22;24035;48.900;9.188;2023-03-26T04:30:17;7.70;99.90
38239;DHT22;24035;48.900;9.188;2023-03-26T04:32:45;7.70;99.90
38239;DHT22;24035;48.900;9.188;2023-03-26T04:35:12;7.70;99.90
38239;DHT22;24035;48.900;9.188;2023-03-26T04:37:40;7.80;99.90
38239;DHT22;24035;48.900;9.188;2023-03-26T04:40:12;7.80;99.90
38239;DHT22;24035;48.900;9.188;2023-03-26T04:42:38;7.70;99.90
38239;DHT22;24035;48.900;9.188;2023-03-26T04:45:11;7.60;99.90
38239;DHT22;24035;48.900;9.188;2023-03-26T04:47:37;7.70;1.00
38239;DHT22;24035;48.900;9.188;2023-03-26T04:50:07;7.70;1.00
38239;DHT22;24035;48.900;9.188;2023-03-26T04:52:34;7.70;99.90
38239;DHT22;24035;48.900;9.188;2023-03-26T04:55:00;7.70;1.00
38239;DHT22;24035;48.900;9.188;2023-03-26T04:57:31;7.70;1.00
38239;DHT22;24035;48.900;9.188;2023-03-26T04:59:59;7.70;99.90
38239;DHT22;24035;48.900;9.188;2023-03-26T05:02:25;7.70;99.90
38239;DHT22;24035;48.900;9.188;2023-03-26T05:04:50;7.70;99.90
38239;DHT22;24035;48.900;9.188;2023-03-26T05:07:18;7.80;99.90
38239;DHT22;24035;48.900;9.188;2023-03-26T05:09:44;7.80;99.90
38239;DHT22;24035;48.900;9.188;2023-03-26T05:12:10;7.80;99.90
38239;DHT22;24035;48.900;9.188;2023-03-26T05:14:35;7.80;99.90
38239;DHT22;24035;48.900;9.188;2023-03-26T05:17:02;7.90;99.90
38239;DHT22;24035;48.900;9.188;2023-03-26T05:19:36;7.90;99.90
38239;DHT22;24035;48.900;9.188;2023-03-26T05:22:02;7.90;99.90
38239;DHT22;24035;48.900;9.188;2023-03-26T05:24:27;8.00;1.00
38239;DHT22;24035;48.900;9.188;2023-03-26T05:26:53;8.00;3.50
38239;DHT22;24035;48.900;9.188;2023-03-26T05:29:20;8.00;1.00
38239;DHT22;24035;48.900;9.188;2023-03-26T05:31:46;8.10;1.00
38239;DHT22;24035;48.900;9.188;2023-03-26T05:34:13;8.10;1.00
38239;DHT22;24035;48.900;9.188;2023-03-26T05:36:39;8.20;1.00
38239;DHT22;24035;48.900;9.188;2023-03-26T05:39:07;8.30;1.00
38239;DHT22;24035;48.900;9.188;2023-03-26T05:41:33;8.20;1.00
38239;DHT22;24035;48.900;9.188;2023-03-26T05:43:59;8.40;1.00
38239;DHT22;24035;48.900;9.188;2023-03-26T05:46:24;8.40;1.00
38239;DHT22;24035;48.900;9.188;2023-03-26T05:48:51;8.40;99.90
38239;DHT22;24035;48.900;9.188;2023-03-26T05:51:19;8.50;99.90
38239;DHT22;24035;48.900;9.188;2023-03-26T05:53:45;8.40;99.90
38239;DHT22;24035;48.900;9.188;2023-03-26T05:56:10;8.40;99.90
38239;DHT22;24035;48.900;9.188;2023-03-26T05:58:36;8.40;99.90
38239;DHT22;24035;48.900;9.188;2023-03-26T06:01:08;8.50;99.90
38239;DHT22;24035;48.900;9.188;2023-03-26T06:03:36;8.50;99.90
38239;DHT22;24035;48.900;9.188;2023-03-26T06:06:06;8.50;99.90
38239;DHT22;24035;48.900;9.188;2023-03-26T06:08:32;8.50;99.90
38239;DHT22;24035;48.900;9.188;2023-03-26T06:11:00;8.50;99.90
38239;DHT22;24035;48.900;9.188;2023-03-26T06:13:26;8.50;99.90
38239;DHT22;24035;48.900;9.188;2023-03-26T06:15:51;8.40;99.90
38239;DHT22;24035;48.900;9.188;2023-03-26T06:18:17;8.40;99.90
38239;DHT22;24035;48.900;9.188;2023-03-26T06:20:43;8.40;1.00
38239;DHT22;24035;48.900;9.188;2023-03-26T06:23:09;8.30;99.90
38239;DHT22;24035;48.900;9.188;2023-03-26T06:25:35;8.20;99.90
38239;DHT22;24035;48.900;9.188;2023-03-26T06:28:01;8.20;99.90
38239;DHT22;24035;48.900;9.188;2023-03-26T06:30:27;8.20;99.90
38239;DHT22;24035;48.900;9.188;2023-03-26T06:32:53;8.20;99.90
38239;DHT22;24035;48.900;9.188;2023-03-26T06:35:18;8.30;94.40
38239;DHT22;24035;48.900;9.188;2023-03-26T06:37:45;8.40;1.00
38239;DHT22;24035;48.900;9.188;2023-03-26T06:40:11;8.40;1.00
38239;DHT22;24035;48.900;9.188;2023-03-26T06:42:36;8.70;1.00
38239;DHT22;24035;48.900;9.188;2023-03-26T06:45:02;8.70;1.00
38239;DHT22;24035;48.900;9.188;2023-03-26T06:47:28;8.80;1.00
38239;DHT22;24035;48.900;9.188;2023-03-26T06:49:54;8.90;1.00
38239;DHT22;24035;48.900;9.188;2023-03-26T06:52:19;9.00;1.00
38239;DHT22;24035;48.900;9.188;2023-03-26T06:54:45;9.00;1.00
38239;DHT22;24035;48.900;9.188;2023-03-26T06:57:10;9.00;1.00
38239;DHT22;24035;48.900;9.188;2023-03-26T06:59:36;9.10;1.00
38239;DHT22;24035;48.900;9.188;2023-03-26T07:02:03;9.10;1.00
38239;DHT22;24035;48.900;9.188;2023-03-26T07:04:28;9.00;1.00
38239;DHT22;24035;48.900;9.188;2023-03-26T07:06:54;9.00;1.00
38239;DHT22;24035;48.900;9.188;2023-03-26T07:09:20;8.90;1.00
38239;DHT22;24035;48.900;9.188;2023-03-26T07:11:46;8.70;1.00
38239;DHT22;24035;48.900;9.188;2023-03-26T07:14:12;8.70;1.00
38239;DHT22;24035;48.900;9.188;2023-03-26T07:16:37;8.70;25.20
38239;DHT22;24035;48.900;9.188;2023-03-26T07:19:03;8.60;83.70
38239;DHT22;24035;48.900;9.188;2023-03-26T07:21:29;8.60;9.30
38239;DHT22;24035;48.900;9.188;2023-03-26T07:23:55;8.50;99.90
38239;DHT22;24035;48.900;9.188;2023-03-26T07:29:44;8.60;11.90
38239;DHT22;24035;48.900;9.188;2023-03-26T07:32:20;8.60;1.00
38239;DHT22;24035;48.900;9.188;2023-03-26T07:35:04;8.60;99.90
38239;DHT22;24035;48.900;9.188;2023-03-26T07:46:00;8.00;99.90
38239;DHT22;24035;48.900;9.188;2023-03-26T07:48:34;8.00;99.90
38239;DHT22;24035;48.900;9.188;2023-03-26T07:51:05;7.90;1.00
38239;DHT22;24035;48.900;9.188;2023-03-26T07:53:31;7.80;1.00
38239;DHT22;24035;48.900;9.188;2023-03-26T07:56:08;7.70;99.40
38239;DHT22;24035;48.900;9.188;2023-03-26T07:58:44;7.80;99.90
38239;DHT22;24035;48.900;9.188;2023-03-26T08:01:54;7.70;99.90
38239;DHT22;24035;48.900;9.188;2023-03-26T08:06:57;7.80;99.90
38239;DHT22;24035;48.900;9.188;2023-03-26T08:12:36;7.90;1.00
38239;DHT22;24035;48.900;9.188;2023-03-26T08:18:14;7.90;1.00
38239;DHT22;24035;48.900;9.188;2023-03-26T08:20:48;7.80;20.30
38239;DHT22;24035;48.900;9.188;2023-03-26T08:23:34;7.80;22.60
38239;DHT22;24035;48.900;9.188;2023-03-26T08:26:26;7.80;99.90
38239;DHT22;24035;48.900;9.188;2023-03-26T08:31:36;7.80;1.00
38239;DHT22;24035;48.900;9.188;2023-03-26T08:34:03;7.80;99.90
38239;DHT22;24035;48.900;9.188;2023-03-26T08:36:29;7.70;1.00
38239;DHT22;24035;48.900;9.188;2023-03-26T08:38:55;7.70;1.00
38239;DHT22;24035;48.900;9.188;2023-03-26T08:50:09;7.70;99.90
38239;DHT22;24035;48.900;9.188;2023-03-26T08:59:21;7.90;99.90
38239;DHT22;24035;48.900;9.188;2023-03-26T09:13:51;8.60;1.00
38239;DHT22;24035;48.900;9.188;2023-03-26T09:21:37;8.80;1.00
38239;DHT22;24035;48.900;9.188;2023-03-26T09:26:45;9.00;99.90
38239;DHT22;24035;48.900;9.188;2023-03-26T09:32:27;9.40;1.00
38239;DHT22;24035;48.900;9.188;2023-03-26T09:38:09;10.10;1.00
38239;DHT22;24035;48.900;9.188;2023-03-26T09:40:42;10.50;99.90
38239;DHT22;24035;48.900;9.188;2023-03-26T09:43:54;10.70;1.00
38239;DHT22;24035;48.900;9.188;2023-03-26T10:00:26;12.10;99.90
38239;DHT22;24035;48.900;9.188;2023-03-26T10:06:28;12.20;99.90
38239;DHT22;24035;48.900;9.188;2023-03-26T10:09:06;12.20;99.90
38239;DHT22;24035;48.900;9.188;2023-03-26T10:15:03;12.30;99.90
38239;DHT22;24035;48.900;9.188;2023-03-26T10:18:08;12.30;1.00
38239;DHT22;24035;48.900;9.188;2023-03-26T10:29:23;12.00;1.00
38239;DHT22;24035;48.900;9.188;2023-03-26T10:32:00;11.80;99.90
38239;DHT22;24035;48.900;9.188;2023-03-26T10:34:51;11.80;1.00
38239;DHT22;24035;48.900;9.188;2023-03-26T10:40:30;12.10;1.00
38239;DHT22;24035;48.900;9.188;2023-03-26T10:43:41;12.40;99.90
38239;DHT22;24035;48.900;9.188;2023-03-26T10:49:00;12.60;1.00
38239;DHT22;24035;48.900;9.188;2023-03-26T10:51:46;12.70;1.00
38239;DHT22;24035;48.900;9.188;2023-03-26T10:54:38;12.70;1.00
38239;DHT22;24035;48.900;9.188;2023-03-26T10:59:42;12.60;1.00
38239;DHT22;24035;48.900;9.188;2023-03-26T11:02:42;12.20;1.00
38239;DHT22;24035;48.900;9.188;2023-03-26T11:08:08;11.80;1.00
38239;DHT22;24035;48.900;9.188;2023-03-26T11:10:53;11.80;1.00
38239;DHT22;24035;48.900;9.188;2023-03-26T11:13:45;12.00;1.00
38239;DHT22;24035;48.900;9.188;2023-03-26T11:19:21;12.70;1.00
38239;DHT22;24035;48.900;9.188;2023-03-26T11:22:20;13.10;99.90
38239;DHT22;24035;48.900;9.188;2023-03-26T11:25:02;13.40;99.90
38239;DHT22;24035;48.900;9.188;2023-03-26T11:27:49;13.70;99.90
38239;DHT22;24035;48.900;9.188;2023-03-26T11:30:28;14.10;99.90
38239;DHT22;24035;48.900;9.188;2023-03-26T11:33:08;14.30;99.90
38239;DHT22;24035;48.900;9.188;2023-03-26T11:35:36;14.40;99.90
38239;DHT22;24035;48.900;9.188;2023-03-26T11:40:56;14.10;99.90
38239;DHT22;24035;48.900;9.188;2023-03-26T11:43:32;14.00;99.90
38239;DHT22;24035;48.900;9.188;2023-03-26T11:46:01;13.90;99.90
38239;DHT22;24035;48.900;9.188;2023-03-26T11:48:32;13.60;99.90
38239;DHT22;24035;48.900;9.188;2023-03-26T11:51:30;13.00;99.90
38239;DHT22;24035;48.900;9.188;2023-03-26T11:54:00;12.20;1.00
38239;DHT22;24035;48.900;9.188;2023-03-26T11:59:11;11.50;99.90
38239;DHT22;24035;48.900;9.188;2023-03-26T12:04:16;11.40;99.90
38239;DHT22;24035;48.900;9.188;2023-03-26T12:06:55;11.30;1.00
38239;DHT22;24035;48.900;9.188;2023-03-26T12:09:22;11.40;99.90
38239;DHT22;24035;48.900;9.188;2023-03-26T12:11:50;11.40;99.90
38239;DHT22;24035;48.900;9.188;2023-03-26T12:14:21;11.70;99.90
38239;DHT22;24035;48.900;9.188;2023-03-26T12:17:03;11.80;99.90
38239;DHT22;24035;48.900;9.188;2023-03-26T12:19:41;11.60;1.00
38239;DHT22;24035;48.900;9.188;2023-03-26T12:22:28;11.40;1.00
38239;DHT22;24035;48.900;9.188;2023-03-26T12:30:27;11.00;99.90
38239;DHT22;24035;48.900;9.188;2023-03-26T12:33:14;11.20;99.90
38239;DHT22;24035;48.900;9.188;2023-03-26T12:35:42;11.40;77.50
38239;DHT22;24035;48.900;9.188;2023-03-26T12:41:16;12.00;1.00
38239;DHT22;24035;48.900;9.188;2023-03-26T12:43:52;12.20;1.00
38239;DHT22;24035;48.900;9.188;2023-03-26T12:46:29;12.50;1.00
38239;DHT22;24035;48.900;9.188;2023-03-26T12:49:01;12.80;1.00
38239;DHT22;24035;48.900;9.188;2023-03-26T12:59:59;13.30;99.90
38239;DHT22;24035;48.900;9.188;2023-03-26T13:10:25;13.20;99.90
38239;DHT22;24035;48.900;9.188;2023-03-26T13:15:35;13.30;99.90
38239;DHT22;24035;48.900;9.188;2023-03-26T13:18:41;13.60;99.90
38239;DHT22;24035;48.900;9.188;2023-03-26T13:40:14;13.80;99.90
38239;DHT22;24035;48.900;9.188;2023-03-26T13:46:36;13.30;99.90
38239;DHT22;24035;48.900;9.188;2023-03-26T13:48:58;13.10;99.90
38239;DHT22;24035;48.900;9.188;2023-03-26T13:54:06;12.70;99.90
38239;DHT22;24035;48.900;9.188;2023-03-26T13:56:39;12.60;99.90
38239;DHT22;24035;48.900;9.188;2023-03-26T13:59:28;12.50;99.90
38239;DHT22;24035;48.900;9.188;2023-03-26T14:02:01;12.70;99.90
38239;DHT22;24035;48.900;9.188;2023-03-26T14:04:35;12.90;99.90
38239;DHT22;24035;48.900;9.188;2023-03-26T14:07:16;13.20;99.90
38239;DHT22;24035;48.900;9.188;2023-03-26T14:09:57;13.20;99.90
38239;DHT22;24035;48.900;9.188;2023-03-26T14:23:00;13.20;99.90
38239;DHT22;24035;48.900;9.188;2023-03-26T14:28:47;13.50;99.90
38239;DHT22;24035;48.900;9.188;2023-03-26T14:34:21;13.30;99.90
38239;DHT22;24035;48.900;9.188;2023-03-26T14:45:34;12.90;99.90
38239;DHT22;24035;48.900;9.188;2023-03-26T14:51:10;12.60;99.90
38239;DHT22;24035;48.900;9.188;2023-03-26T14:53:45;12.20;99.90
38239;DHT22;24035;48.900;9.188;2023-03-26T14:56:37;11.80;99.90
38239;DHT22;24035;48.900;9.188;2023-03-26T15:07:40;11.40;1.00
38239;DHT22;24035;48.900;9.188;2023-03-26T15:10:17;10.90;1.00
38239;DHT22;24035;48.900;9.188;2023-03-26T15:16:25;8.90;99.90
38239;DHT22;24035;48.900;9.188;2023-03-26T15:22:32;8.30;99.90
38239;DHT22;24035;48.900;9.188;2023-03-26T15:44:50;7.70;1.00
38239;DHT22;24035;48.900;9.188;2023-03-26T15:50:52;7.80;1.00
38239;DHT22;24035;48.900;9.188;2023-03-26T15:59:00;7.60;99.90
38239;DHT22;24035;48.900;9.188;2023-03-26T16:01:57;7.60;99.90
38239;DHT22;24035;48.900;9.188;2023-03-26T16:04:51;7.60;99.90
38239;DHT22;24035;48.900;9.188;2023-03-26T16:07:48;7.50;99.90
38239;DHT22;24035;48.900;9.188;2023-03-26T16:10:19;7.60;99.90
38239;DHT22;24035;48.900;9.188;2023-03-26T16:15:27;7.70;99.90
38239;DHT22;24035;48.900;9.188;2023-03-26T16:20:52;7.80;1.00
38239;DHT22;24035;48.900;9.188;2023-03-26T16:23:35;7.70;35.50
38239;DHT22;24035;48.900;9.188;2023-03-26T16:36:35;8.00;99.90
38239;DHT22;24035;48.900;9.188;2023-03-26T16:49:43;8.10;1.00
38239;DHT22;24035;48.900;9.188;2023-03-26T16:55:01;8.10;1.00
38239;DHT22;24035;48.900;9.188;2023-03-26T16:57:52;8.10;1.00
38239;DHT22;24035;48.900;9.188;2023-03-26T17:00:42;8.00;1.00
38239;DHT22;24035;48.900;9.188;2023-03-26T17:06:20;8.00;1.00
38239;DHT22;24035;48.900;9.188;2023-03-26T17:11:32;7.90;1.00
38239;DHT22;24035;48.900;9.188;2023-03-26T17:20:16;7.90;1.00
38239;DHT22;24035;48.900;9.188;2023-03-26T17:22:59;7.90;1.00
38239;DHT22;24035;48.900;9.188;2023-03-26T17:25:39;7.90;1.00
38239;DHT22;24035;48.900;9.188;2023-03-26T17:31:02;7.90;99.90
38239;DHT22;24035;48.900;9.188;2023-03-26T17:33:34;7.80;99.90
38239;DHT22;24035;48.900;9.188;2023-03-26T17:36:38;7.90;1.00
38239;DHT22;24035;48.900;9.188;2023-03-26T17:39:21;7.80;1.00
38239;DHT22;24035;48.900;9.188;2023-03-26T17:42:24;7.80;1.00
38239;DHT22;24035;48.900;9.188;2023-03-26T17:45:15;7.80;1.00
38239;DHT22;24035;48.900;9.188;2023-03-26T17:47:55;7.80;99.90
38239;DHT22;24035;48.900;9.188;2023-03-26T17:50:31;7.80;99.90
38239;DHT22;24035;48.900;9.188;2023-03-26T17:52:59;7.80;99.90
38239;DHT22;24035;48.900;9.188;2023-03-26T17:55:33;7.90;99.90
38239;DHT22;24035;48.900;9.188;2023-03-26T17:58:03;7.80;99.90
38239;DHT22;24035;48.900;9.188;2023-03-26T18:00:44;7.80;1.00
38239;DHT22;24035;48.900;9.188;2023-03-26T18:03:28;7.80;1.00
38239;DHT22;24035;48.900;9.188;2023-03-26T18:06:09;7.80;1.00
38239;DHT22;24035;48.900;9.188;2023-03-26T18:14:27;7.80;1.00
38239;DHT22;24035;48.900;9.188;2023-03-26T18:16:59;7.80;1.00
38239;DHT22;24035;48.900;9.188;2023-03-26T18:19:26;7.80;1.00
38239;DHT22;24035;48.900;9.188;2023-03-26T18:21:56;7.80;1.00
38239;DHT22;24035;48.900;9.188;2023-03-26T18:24:37;7.70;1.00
38239;DHT22;24035;48.900;9.188;2023-03-26T18:27:10;7.60;1.00
38239;DHT22;24035;48.900;9.188;2023-03-26T18:29:42;7.50;1.00
38239;DHT22;24035;48.900;9.188;2023-03-26T18:34:38;7.40;1.00
38239;DHT22;24035;48.900;9.188;2023-03-26T18:37:18;7.40;1.00
38239;DHT22;24035;48.900;9.188;2023-03-26T18:42:35;7.40;1.00
38239;DHT22;24035;48.900;9.188;2023-03-26T18:47:51;7.30;16.10
38239;DHT22;24035;48.900;9.188;2023-03-26T18:50:22;7.20;97.80
38239;DHT22;24035;48.900;9.188;2023-03-26T18:52:49;7.20;99.90
38239;DHT22;24035;48.900;9.188;2023-03-26T18:55:15;7.20;99.90
38239;DHT22;24035;48.900;9.188;2023-03-26T18:57:41;7.10;99.90
38239;DHT22;24035;48.900;9.188;2023-03-26T19:00:20;7.10;99.90
38239;DHT22;24035;48.900;9.188;2023-03-26T19:02:48;7.10;99.90
38239;DHT22;24035;48.900;9.188;2023-03-26T19:05:16;7.10;99.90
38239;DHT22;24035;48.900;9.188;2023-03-26T19:07:43;7.10;99.90
38239;DHT22;24035;48.900;9.188;2023-03-26T19:10:16;7.10;4.00
38239;DHT22;24035;48.900;9.188;2023-03-26T19:12:57;7.10;8.90
38239;DHT22;24035;48.900;9.188;2023-03-26T19:15:25;7.00;1.00
38239;DHT22;24035;48.900;9.188;2023-03-26T19:17:54;7.00;1.00
38239;DHT22;24035;48.900;9.188;2023-03-26T19:20:27;7.00;1.00
38239;DHT22;24035;48.900;9.188;2023-03-26T19:22:54;7.00;1.00
38239;DHT22;24035;48.900;9.188;2023-03-26T19:27:51;6.90;1.00
38239;DHT22;24035;48.900;9.188;2023-03-26T19:30:32;6.90;1.00
38239;DHT22;24035;48.900;9.188;2023-03-26T19:33:13;6.80;1.00
38239;DHT22;24035;48.900;9.188;2023-03-26T19:35:41;6.80;1.00
38239;DHT22;24035;48.900;9.188;2023-03-26T19:40:49;6.60;1.00
38239;DHT22;24035;48.900;9.188;2023-03-26T19:43:16;6.60;1.00
38239;DHT22;24035;48.900;9.188;2023-03-26T19:45:42;6.60;1.00
38239;DHT22;24035;48.900;9.188;2023-03-26T19:48:09;6.60;1.00
38239;DHT22;24035;48.900;9.188;2023-03-26T19:50:39;6.50;1.00
38239;DHT22;24035;48.900;9.188;2023-03-26T19:53:21;6.50;1.00
38239;DHT22;24035;48.900;9.188;2023-03-26T19:55:56;6.40;1.00
38239;DHT22;24035;48.900;9.188;2023-03-26T19:58:26;6.40;1.00
38239;DHT22;24035;48.900;9.188;2023-03-26T20:00:52;6.30;1.00
38239;DHT22;24035;48.900;9.188;2023-03-26T20:03:28;6.30;1.00
38239;DHT22;24035;48.900;9.188;2023-03-26T20:05:54;6.20;1.00
38239;DHT22;24035;48.900;9.188;2023-03-26T20:08:20;6.10;99.90
38239;DHT22;24035;48.900;9.188;2023-03-26T20:10:52;6.10;99.90
38239;DHT22;24035;48.900;9.188;2023-03-26T20:13:17;6.10;99.90
38239;DHT22;24035;48.900;9.188;2023-03-26T20:15:49;6.00;99.90
38239;DHT22;24035;48.900;9.188;2023-03-26T20:18:17;6.00;99.90
38239;DHT22;24035;48.900;9.188;2023-03-26T20:20:43;6.00;99.90
38239;DHT22;24035;48.900;9.188;2023-03-26T20:23:12;6.10;99.90
38239;DHT22;24035;48.900;9.188;2023-03-26T20:25:50;6.20;99.90
38239;DHT22;24035;48.900;9.188;2023-03-26T20:28:19;6.20;99.90
38239;DHT22;24035;48.900;9.188;2023-03-26T20:30:49;6.10;99.90
38239;DHT22;24035;48.900;9.188;2023-03-26T20:33:24;6.10;99.90
38239;DHT22;24035;48.900;9.188;2023-03-26T20:35:55;6.10;99.90
38239;DHT22;24035;48.900;9.188;2023-03-26T20:38:21;6.10;99.90
38239;DHT22;24035;48.900;9.188;2023-03-26T20:40:48;6.00;99.90
38239;DHT22;24035;48.900;9.188;2023-03-26T20:43:15;6.00;99.90
38239;DHT22;24035;48.900;9.188;2023-03-26T20:45:44;6.00;99.90
38239;DHT22;24035;48.900;9.188;2023-03-26T20:48:10;6.00;99.90
38239;DHT22;24035;48.900;9.188;2023-03-26T20:50:37;6.00;99.90
38239;DHT22;24035;48.900;9.188;2023-03-26T20:53:06;6.00;99.90
38239;DHT22;24035;48.900;9.188;2023-03-26T20:55:32;5.90;99.90
38239;DHT22;24035;48.900;9.188;2023-03-26T20:57:57;6.00;99.90
38239;DHT22;24035;48.900;9.188;2023-03-26T21:00:23;5.90;99.90
38239;DHT22;24035;48.900;9.188;2023-03-26T21:02:55;6.00;99.90
38239;DHT22;24035;48.900;9.188;2023-03-26T21:05:23;6.00;99.90
38239;DHT22;24035;48.900;9.188;2023-03-26T21:07:51;6.10;99.90
38239;DHT22;24035;48.900;9.188;2023-03-26T21:10:18;6.10;99.90
38239;DHT22;24035;48.900;9.188;2023-03-26T21:15:33;6.10;1.00
38239;DHT22;24035;48.900;9.188;2023-03-26T21:17:59;6.10;1.00
38239;DHT22;24035;48.900;9.188;2023-03-26T21:20:26;6.10;1.00
38239;DHT22;24035;48.900;9.188;2023-03-26T21:23:19;6.10;1.00
38239;DHT22;24035;48.900;9.188;2023-03-26T21:26:03;6.10;1.00
38239;DHT22;24035;48.900;9.188;2023-03-26T21:28:31;6.10;1.00
38239;DHT22;24035;48.900;9.188;2023-03-26T21:30:59;6.10;1.00
38239;DHT22;24035;48.900;9.188;2023-03-26T21:33:25;6.00;99.90
38239;DHT22;24035;48.900;9.188;2023-03-26T21:35:52;6.00;99.90
38239;DHT22;24035;48.900;9.188;2023-03-26T21:38:19;6.10;1.00